sensor_id;sensor_type;location;lat;lon;timestamp;temperature;humidity
40516;DHT22;26216;53.724;9.898;2023-07-31T00:00:29;18.10;98.20
40516;DHT22;26216;53.724;9.898;2023-07-31T00:02:55;18.10;98.30
40516;DHT22;26216;53.724;9.898;2023-07-31T00:05:21;18.10;98.30
40516;DHT22;26216;53.724;9.898;2023-07-31T00:07:47;18.10;98.40
40516;DHT22;26216;53.724;9.898;2023-07-31T00:10:13;18.10;98.40
40516;DHT22;26216;53.724;9.898;2023-07-31T00:12:41;18.10;98.40
40516;DHT22;26216;53.724;9.898;2023-07-31T00:15:08;18.10;98.50
40516;DHT22;26216;53.724;9.898;2023-07-31T00:17:34;18.10;98.50
40516;DHT22;26216;53.724;9.898;2023-07-31T00:20:00;18.10;98.50
40516;DHT22;26216;53.724;9.898;2023-07-31T00:22:26;18.10;98.50
40516;DHT22;26216;53.724;9.898;2023-07-31T00:24:51;18.10;98.50
40516;DHT22;26216;53.724;9.898;2023-07-31T00:27:17;18.10;98.50
40516;DHT22;26216;53.724;9.898;2023-07-31T00:29:43;18.10;98.50
40516;DHT22;26216;53.724;9.898;2023-07-31T00:32:09;18.10;98.60
40516;DHT22;26216;53.724;9.898;2023-07-31T00:34:35;18.00;98.60
40516;DHT22;26216;53.724;9.898;2023-07-31T00:37:00;18.00;98.70
40516;DHT22;26216;53.724;9.898;2023-07-31T00:39:26;18.00;98.70
40516;DHT22;26216;53.724;9.898;2023-07-31T00:41:52;18.00;98.80
40516;DHT22;26216;53.724;9.898;2023-07-31T00:44:18;18.00;98.90
40516;DHT22;26216;53.724;9.898;2023-07-31T00:46:44;18.00;99.00
40516;DHT22;26216;53.724;9.898;2023-07-31T00:49:11;18.00;98.90
40516;DHT22;26216;53.724;9.898;2023-07-31T00:51:37;18.00;98.90
40516;DHT22;26216;53.724;9.898;2023-07-31T00:54:03;18.00;98.90
40516;DHT22;26216;53.724;9.898;2023-07-31T00:56:29;18.00;98.90
40516;DHT22;26216;53.724;9.898;2023-07-31T00:58:55;18.00;98.80
40516;DHT22;26216;53.724;9.898;2023-07-31T01:01:21;18.00;98.80
40516;DHT22;26216;53.724;9.898;2023-07-31T01:03:48;18.00;98.80
40516;DHT22;26216;53.724;9.898;2023-07-31T01:11:27;17.90;98.80
40516;DHT22;26216;53.724;9.898;2023-07-31T01:13:54;17.90;99.10
40516;DHT22;26216;53.724;9.898;2023-07-31T01:16:20;17.90;98.80
40516;DHT22;26216;53.724;9.898;2023-07-31T01:18:46;17.90;98.80
40516;DHT22;26216;53.724;9.898;2023-07-31T01:24:22;17.80;99.00
40516;DHT22;26216;53.724;9.898;2023-07-31T01:27:10;17.80;99.10
40516;DHT22;26216;53.724;9.898;2023-07-31T01:32:41;17.80;98.90
40516;DHT22;26216;53.724;9.898;2023-07-31T01:35:07;17.80;98.90
40516;DHT22;26216;53.724;9.898;2023-07-31T01:37:34;17.80;98.90
40516;DHT22;26216;53.724;9.898;2023-07-31T01:40:00;17.70;98.90
40516;DHT22;26216;53.724;9.898;2023-07-31T01:42:26;17.70;98.90
40516;DHT22;26216;53.724;9.898;2023-07-31T01:44:51;17.70;99.10
40516;DHT22;26216;53.724;9.898;2023-07-31T01:47:17;17.70;99.10
40516;DHT22;26216;53.724;9.898;2023-07-31T01:49:43;17.70;99.20
40516;DHT22;26216;53.724;9.898;2023-07-31T01:52:09;17.70;99.20
40516;DHT22;26216;53.724;9.898;2023-07-31T01:54:34;17.70;99.30
40516;DHT22;26216;53.724;9.898;2023-07-31T01:57:02;17.70;99.40
40516;DHT22;26216;53.724;9.898;2023-07-31T01:59:28;17.70;99.30
40516;DHT22;26216;53.724;9.898;2023-07-31T02:01:54;17.70;99.30
40516;DHT22;26216;53.724;9.898;2023-07-31T02:04:20;17.70;99.30
40516;DHT22;26216;53.724;9.898;2023-07-31T02:06:46;17.70;99.40
40516;DHT22;26216;53.724;9.898;2023-07-31T02:09:12;17.70;99.40
40516;DHT22;26216;53.724;9.898;2023-07-31T02:11:37;17.70;99.40
40516;DHT22;26216;53.724;9.898;2023-07-31T02:14:03;17.70;99.40
40516;DHT22;26216;53.724;9.898;2023-07-31T02:16:29;17.70;99.40
40516;DHT22;26216;53.724;9.898;2023-07-31T02:18:55;17.70;99.40
40516;DHT22;26216;53.724;9.898;2023-07-31T02:21:20;17.70;99.50
40516;DHT22;26216;53.724;9.898;2023-07-31T02:23:46;17.60;99.50
40516;DHT22;26216;53.724;9.898;2023-07-31T02:26:12;17.60;99.50
40516;DHT22;26216;53.724;9.898;2023-07-31T02:28:38;17.60;99.50
40516;DHT22;26216;53.724;9.898;2023-07-31T02:31:04;17.60;99.60
40516;DHT22;26216;53.724;9.898;2023-07-31T02:33:29;17.60;99.80
40516;DHT22;26216;53.724;9.898;2023-07-31T02:35:55;17.60;99.60
40516;DHT22;26216;53.724;9.898;2023-07-31T02:38:21;17.60;99.70
40516;DHT22;26216;53.724;9.898;2023-07-31T02:40:47;17.60;99.70
40516;DHT22;26216;53.724;9.898;2023-07-31T02:43:13;17.60;99.70
40516;DHT22;26216;53.724;9.898;2023-07-31T02:45:39;17.60;99.80
40516;DHT22;26216;53.724;9.898;2023-07-31T02:48:05;17.60;99.70
40516;DHT22;26216;53.724;9.898;2023-07-31T02:50:31;17.60;99.90
40516;DHT22;26216;53.724;9.898;2023-07-31T02:52:59;17.60;99.80
40516;DHT22;26216;53.724;9.898;2023-07-31T02:55:24;17.60;99.90
40516;DHT22;26216;53.724;9.898;2023-07-31T02:57:50;17.70;99.90
40516;DHT22;26216;53.724;9.898;2023-07-31T03:00:17;17.60;99.90
40516;DHT22;26216;53.724;9.898;2023-07-31T03:02:43;17.60;99.90
40516;DHT22;26216;53.724;9.898;2023-07-31T03:05:09;17.70;99.90
40516;DHT22;26216;53.724;9.898;2023-07-31T03:07:35;17.60;99.90
40516;DHT22;26216;53.724;9.898;2023-07-31T03:10:01;17.70;99.90
40516;DHT22;26216;53.724;9.898;2023-07-31T03:12:27;17.70;99.90
40516;DHT22;26216;53.724;9.898;2023-07-31T03:14:53;17.70;99.90
40516;DHT22;26216;53.724;9.898;2023-07-31T03:17:18;17.70;99.90
40516;DHT22;26216;53.724;9.898;2023-07-31T03:19:44;17.70;99.90
40516;DHT22;26216;53.724;9.898;2023-07-31T03:22:10;17.70;99.90
40516;DHT22;26216;53.724;9.898;2023-07-31T03:24:36;17.70;99.90
40516;DHT22;26216;53.724;9.898;2023-07-31T03:27:02;17.70;99.90
40516;DHT22;26216;53.724;9.898;2023-07-31T03:29:28;17.80;99.90
40516;DHT22;26216;53.724;9.898;2023-07-31T03:31:53;17.80;99.90
40516;DHT22;26216;53.724;9.898;2023-07-31T03:34:19;17.80;99.90
40516;DHT22;26216;53.724;9.898;2023-07-31T03:36:45;17.70;99.90
40516;DHT22;26216;53.724;9.898;2023-07-31T03:39:11;17.70;99.90
40516;DHT22;26216;53.724;9.898;2023-07-31T03:41:37;17.80;99.90
40516;DHT22;26216;53.724;9.898;2023-07-31T03:44:03;17.70;99.90
40516;DHT22;26216;53.724;9.898;2023-07-31T03:46:28;17.80;99.90
40516;DHT22;26216;53.724;9.898;2023-07-31T03:48:54;17.80;99.90
40516;DHT22;26216;53.724;9.898;2023-07-31T03:51:20;17.80;99.90
40516;DHT22;26216;53.724;9.898;2023-07-31T03:53:46;17.80;99.90
40516;DHT22;26216;53.724;9.898;2023-07-31T03:56:12;17.80;99.90
40516;DHT22;26216;53.724;9.898;2023-07-31T03:58:38;17.90;99.90
40516;DHT22;26216;53.724;9.898;2023-07-31T04:01:03;17.90;99.90
40516;DHT22;26216;53.724;9.898;2023-07-31T04:03:30;17.90;99.90
40516;DHT22;26216;53.724;9.898;2023-07-31T04:05:55;17.90;99.90
40516;DHT22;26216;53.724;9.898;2023-07-31T04:08:22;18.00;99.90
40516;DHT22;26216;53.724;9.898;2023-07-31T04:10:48;18.00;99.90
40516;DHT22;26216;53.724;9.898;2023-07-31T04:13:14;18.00;99.90
40516;DHT22;26216;53.724;9.898;2023-07-31T04:15:41;18.00;99.90
40516;DHT22;26216;53.724;9.898;2023-07-31T04:18:06;18.10;99.90
40516;DHT22;26216;53.724;9.898;2023-07-31T04:20:32;18.10;99.90
40516;DHT22;26216;53.724;9.898;2023-07-31T04:22:58;18.10;99.90
40516;DHT22;26216;53.724;9.898;2023-07-31T04:25:28;18.20;99.90
40516;DHT22;26216;53.724;9.898;2023-07-31T04:27:54;18.20;99.90
40516;DHT22;26216;53.724;9.898;2023-07-31T04:30:20;18.20;99.90
40516;DHT22;26216;53.724;9.898;2023-07-31T04:32:46;18.30;99.90
40516;DHT22;26216;53.724;9.898;2023-07-31T04:35:12;18.20;99.90
40516;DHT22;26216;53.724;9.898;2023-07-31T04:37:38;18.30;99.90
40516;DHT22;26216;53.724;9.898;2023-07-31T04:40:05;18.30;99.90
40516;DHT22;26216;53.724;9.898;2023-07-31T04:42:31;18.30;99.90
40516;DHT22;26216;53.724;9.898;2023-07-31T04:44:58;18.30;99.90
40516;DHT22;26216;53.724;9.898;2023-07-31T04:47:24;18.30;99.90
40516;DHT22;26216;53.724;9.898;2023-07-31T04:49:51;18.30;99.90
40516;DHT22;26216;53.724;9.898;2023-07-31T04:52:17;18.40;99.90
40516;DHT22;26216;53.724;9.898;2023-07-31T04:54:43;18.40;99.90
40516;DHT22;26216;53.724;9.898;2023-07-31T04:57:09;18.40;99.90
40516;DHT22;26216;53.724;9.898;2023-07-31T04:59:35;18.40;99.90
40516;DHT22;26216;53.724;9.898;2023-07-31T05:02:01;18.40;99.90
40516;DHT22;26216;53.724;9.898;2023-07-31T05:04:26;18.40;99.90
40516;DHT22;26216;53.724;9.898;2023-07-31T05:06:52;18.40;99.90
40516;DHT22;26216;53.724;9.898;2023-07-31T05:09:18;18.50;99.90
40516;DHT22;26216;53.724;9.898;2023-07-31T05:11:44;18.50;99.90
40516;DHT22;26216;53.724;9.898;2023-07-31T05:14:10;18.50;99.90
40516;DHT22;26216;53.724;9.898;2023-07-31T05:16:37;18.50;99.90
40516;DHT22;26216;53.724;9.898;2023-07-31T05:19:03;18.50;99.90
40516;DHT22;26216;53.724;9.898;2023-07-31T05:21:28;18.60;99.90
40516;DHT22;26216;53.724;9.898;2023-07-31T05:23:55;18.60;99.90
40516;DHT22;26216;53.724;9.898;2023-07-31T05:26:21;18.60;99.90
40516;DHT22;26216;53.724;9.898;2023-07-31T05:28:47;18.60;99.90
40516;DHT22;26216;53.724;9.898;2023-07-31T05:31:13;18.60;99.90
40516;DHT22;26216;53.724;9.898;2023-07-31T05:33:39;18.60;99.90
40516;DHT22;26216;53.724;9.898;2023-07-31T05:36:04;18.60;99.90
40516;DHT22;26216;53.724;9.898;2023-07-31T05:38:31;18.60;99.90
40516;DHT22;26216;53.724;9.898;2023-07-31T05:40:56;18.60;99.90
40516;DHT22;26216;53.724;9.898;2023-07-31T05:43:22;18.70;99.90
40516;DHT22;26216;53.724;9.898;2023-07-31T05:45:48;18.60;99.90
40516;DHT22;26216;53.724;9.898;2023-07-31T05:48:15;18.70;99.90
40516;DHT22;26216;53.724;9.898;2023-07-31T05:50:41;18.70;99.90
40516;DHT22;26216;53.724;9.898;2023-07-31T05:53:07;18.70;99.90
40516;DHT22;26216;53.724;9.898;2023-07-31T05:55:34;18.70;99.90
40516;DHT22;26216;53.724;9.898;2023-07-31T05:58:00;18.70;99.90
40516;DHT22;26216;53.724;9.898;2023-07-31T06:00:46;18.70;99.90
40516;DHT22;26216;53.724;9.898;2023-07-31T06:03:14;18.80;99.90
40516;DHT22;26216;53.724;9.898;2023-07-31T06:05:41;18.80;99.90
40516;DHT22;26216;53.724;9.898;2023-07-31T06:08:07;18.80;99.90
40516;DHT22;26216;53.724;9.898;2023-07-31T06:10:33;18.80;99.90
40516;DHT22;26216;53.724;9.898;2023-07-31T06:13:00;18.90;99.90
40516;DHT22;26216;53.724;9.898;2023-07-31T06:15:26;18.90;99.90
40516;DHT22;26216;53.724;9.898;2023-07-31T06:17:52;18.90;99.90
40516;DHT22;26216;53.724;9.898;2023-07-31T06:20:18;18.90;99.90
40516;DHT22;26216;53.724;9.898;2023-07-31T06:22:44;18.90;99.90
40516;DHT22;26216;53.724;9.898;2023-07-31T06:25:11;18.90;99.90
40516;DHT22;26216;53.724;9.898;2023-07-31T06:27:37;18.90;99.90
40516;DHT22;26216;53.724;9.898;2023-07-31T06:30:04;18.90;99.90
40516;DHT22;26216;53.724;9.898;2023-07-31T06:32:30;18.90;99.90
40516;DHT22;26216;53.724;9.898;2023-07-31T06:34:56;19.00;99.90
40516;DHT22;26216;53.724;9.898;2023-07-31T06:37:22;19.00;99.90
40516;DHT22;26216;53.724;9.898;2023-07-31T06:39:48;19.00;99.90
40516;DHT22;26216;53.724;9.898;2023-07-31T06:42:14;19.00;99.90
40516;DHT22;26216;53.724;9.898;2023-07-31T06:44:40;19.00;99.90
40516;DHT22;26216;53.724;9.898;2023-07-31T06:47:08;19.00;99.90
40516;DHT22;26216;53.724;9.898;2023-07-31T06:49:34;19.00;99.90
40516;DHT22;26216;53.724;9.898;2023-07-31T06:52:00;19.10;99.90
40516;DHT22;26216;53.724;9.898;2023-07-31T06:54:26;19.10;99.90
40516;DHT22;26216;53.724;9.898;2023-07-31T06:56:52;19.10;99.90
40516;DHT22;26216;53.724;9.898;2023-07-31T06:59:18;19.10;99.90
40516;DHT22;26216;53.724;9.898;2023-07-31T07:01:44;19.10;99.90
40516;DHT22;26216;53.724;9.898;2023-07-31T07:04:09;19.10;99.90
40516;DHT22;26216;53.724;9.898;2023-07-31T07:06:35;19.20;99.90
40516;DHT22;26216;53.724;9.898;2023-07-31T07:09:01;19.20;99.90
40516;DHT22;26216;53.724;9.898;2023-07-31T07:11:28;19.10;99.90
40516;DHT22;26216;53.724;9.898;2023-07-31T07:13:54;19.20;99.90
40516;DHT22;26216;53.724;9.898;2023-07-31T07:16:20;19.20;99.90
40516;DHT22;26216;53.724;9.898;2023-07-31T07:18:46;19.20;99.90
40516;DHT22;26216;53.724;9.898;2023-07-31T07:21:12;19.30;99.90
40516;DHT22;26216;53.724;9.898;2023-07-31T07:23:42;19.30;99.90
40516;DHT22;26216;53.724;9.898;2023-07-31T07:26:08;19.30;99.90
40516;DHT22;26216;53.724;9.898;2023-07-31T07:28:34;19.40;99.90
40516;DHT22;26216;53.724;9.898;2023-07-31T07:31:00;19.40;99.90
40516;DHT22;26216;53.724;9.898;2023-07-31T07:33:26;19.40;99.90
40516;DHT22;26216;53.724;9.898;2023-07-31T07:35:52;19.40;99.90
40516;DHT22;26216;53.724;9.898;2023-07-31T07:38:18;19.50;99.90
40516;DHT22;26216;53.724;9.898;2023-07-31T07:40:44;19.50;99.90
40516;DHT22;26216;53.724;9.898;2023-07-31T07:43:12;19.50;99.90
40516;DHT22;26216;53.724;9.898;2023-07-31T07:45:38;19.50;99.90
40516;DHT22;26216;53.724;9.898;2023-07-31T07:48:04;19.60;99.90
40516;DHT22;26216;53.724;9.898;2023-07-31T07:50:30;19.60;99.90
40516;DHT22;26216;53.724;9.898;2023-07-31T07:52:56;19.70;99.90
40516;DHT22;26216;53.724;9.898;2023-07-31T07:55:22;19.70;99.90
40516;DHT22;26216;53.724;9.898;2023-07-31T07:57:49;19.80;99.90
40516;DHT22;26216;53.724;9.898;2023-07-31T08:00:16;19.80;99.90
40516;DHT22;26216;53.724;9.898;2023-07-31T08:02:43;19.80;99.90
40516;DHT22;26216;53.724;9.898;2023-07-31T08:05:09;19.90;99.90
40516;DHT22;26216;53.724;9.898;2023-07-31T08:07:35;19.90;99.90
40516;DHT22;26216;53.724;9.898;2023-07-31T08:10:01;20.00;99.90
40516;DHT22;26216;53.724;9.898;2023-07-31T08:12:27;20.00;99.90
40516;DHT22;26216;53.724;9.898;2023-07-31T08:14:53;20.00;99.90
40516;DHT22;26216;53.724;9.898;2023-07-31T08:17:19;20.10;99.90
40516;DHT22;26216;53.724;9.898;2023-07-31T08:19:45;20.10;99.90
40516;DHT22;26216;53.724;9.898;2023-07-31T08:22:11;20.20;99.90
40516;DHT22;26216;53.724;9.898;2023-07-31T08:24:38;20.20;99.90
40516;DHT22;26216;53.724;9.898;2023-07-31T08:27:06;20.30;99.90
40516;DHT22;26216;53.724;9.898;2023-07-31T08:29:32;20.30;99.90
40516;DHT22;26216;53.724;9.898;2023-07-31T08:31:58;20.40;99.90
40516;DHT22;26216;53.724;9.898;2023-07-31T08:34:24;20.40;99.90
40516;DHT22;26216;53.724;9.898;2023-07-31T08:36:50;20.40;99.90
40516;DHT22;26216;53.724;9.898;2023-07-31T08:39:16;20.50;99.90
40516;DHT22;26216;53.724;9.898;2023-07-31T08:41:42;20.50;99.90
40516;DHT22;26216;53.724;9.898;2023-07-31T08:44:10;20.60;99.90
40516;DHT22;26216;53.724;9.898;2023-07-31T08:46:38;20.60;99.90
40516;DHT22;26216;53.724;9.898;2023-07-31T08:49:05;20.70;99.90
40516;DHT22;26216;53.724;9.898;2023-07-31T08:51:34;20.70;99.90
40516;DHT22;26216;53.724;9.898;2023-07-31T08:54:01;20.80;99.90
40516;DHT22;26216;53.724;9.898;2023-07-31T08:56:31;20.80;99.90
40516;DHT22;26216;53.724;9.898;2023-07-31T08:58:59;20.90;99.90
40516;DHT22;26216;53.724;9.898;2023-07-31T09:01:30;20.90;99.90
40516;DHT22;26216;53.724;9.898;2023-07-31T09:03:59;20.90;99.90
40516;DHT22;26216;53.724;9.898;2023-07-31T09:06:28;20.90;99.90
40516;DHT22;26216;53.724;9.898;2023-07-31T09:08:55;21.00;99.90
40516;DHT22;26216;53.724;9.898;2023-07-31T09:11:24;21.00;99.90
40516;DHT22;26216;53.724;9.898;2023-07-31T09:13:52;21.00;99.90
40516;DHT22;26216;53.724;9.898;2023-07-31T09:16:27;21.00;99.90
40516;DHT22;26216;53.724;9.898;2023-07-31T09:19:28;21.00;99.90
40516;DHT22;26216;53.724;9.898;2023-07-31T09:22:15;21.00;99.90
40516;DHT22;26216;53.724;9.898;2023-07-31T09:24:41;21.00;99.90
40516;DHT22;26216;53.724;9.898;2023-07-31T09:27:08;21.00;99.90
40516;DHT22;26216;53.724;9.898;2023-07-31T09:29:34;21.10;99.90
40516;DHT22;26216;53.724;9.898;2023-07-31T09:31:59;21.10;99.90
40516;DHT22;26216;53.724;9.898;2023-07-31T09:34:37;21.10;99.90
40516;DHT22;26216;53.724;9.898;2023-07-31T09:37:06;21.10;99.90
40516;DHT22;26216;53.724;9.898;2023-07-31T09:39:32;21.20;99.90
40516;DHT22;26216;53.724;9.898;2023-07-31T09:41:58;21.20;99.90
40516;DHT22;26216;53.724;9.898;2023-07-31T09:44:40;21.20;99.90
40516;DHT22;26216;53.724;9.898;2023-07-31T09:47:06;21.20;99.90
40516;DHT22;26216;53.724;9.898;2023-07-31T09:49:46;21.30;99.90
40516;DHT22;26216;53.724;9.898;2023-07-31T09:52:12;21.30;99.90
40516;DHT22;26216;53.724;9.898;2023-07-31T09:54:39;21.30;99.90
40516;DHT22;26216;53.724;9.898;2023-07-31T09:57:05;21.40;99.90
40516;DHT22;26216;53.724;9.898;2023-07-31T09:59:34;21.40;99.90
40516;DHT22;26216;53.724;9.898;2023-07-31T10:02:05;21.50;99.90
40516;DHT22;26216;53.724;9.898;2023-07-31T10:04:57;21.50;99.90
40516;DHT22;26216;53.724;9.898;2023-07-31T10:07:25;21.50;99.90
40516;DHT22;26216;53.724;9.898;2023-07-31T10:09:52;21.50;99.90
40516;DHT22;26216;53.724;9.898;2023-07-31T10:12:39;21.50;99.90
40516;DHT22;26216;53.724;9.898;2023-07-31T10:15:06;21.60;99.90
40516;DHT22;26216;53.724;9.898;2023-07-31T10:17:54;21.60;99.90
40516;DHT22;26216;53.724;9.898;2023-07-31T10:20:41;21.60;99.90
40516;DHT22;26216;53.724;9.898;2023-07-31T10:23:07;21.60;99.90
40516;DHT22;26216;53.724;9.898;2023-07-31T10:25:54;21.60;99.90
40516;DHT22;26216;53.724;9.898;2023-07-31T10:28:41;21.60;99.90
40516;DHT22;26216;53.724;9.898;2023-07-31T10:31:28;21.60;99.90
40516;DHT22;26216;53.724;9.898;2023-07-31T10:34:14;21.60;99.90
40516;DHT22;26216;53.724;9.898;2023-07-31T10:37:22;21.60;99.90
40516;DHT22;26216;53.724;9.898;2023-07-31T10:40:12;21.60;99.90
40516;DHT22;26216;53.724;9.898;2023-07-31T10:43:00;21.60;99.90
40516;DHT22;26216;53.724;9.898;2023-07-31T10:45:48;21.60;99.90
40516;DHT22;26216;53.724;9.898;2023-07-31T10:48:34;21.50;99.90
40516;DHT22;26216;53.724;9.898;2023-07-31T10:51:10;21.60;99.90
40516;DHT22;26216;53.724;9.898;2023-07-31T10:53:36;21.60;99.90
40516;DHT22;26216;53.724;9.898;2023-07-31T10:56:07;21.60;99.90
40516;DHT22;26216;53.724;9.898;2023-07-31T10:58:34;21.60;99.90
40516;DHT22;26216;53.724;9.898;2023-07-31T11:01:05;21.60;99.90
40516;DHT22;26216;53.724;9.898;2023-07-31T11:06:08;21.60;99.90
40516;DHT22;26216;53.724;9.898;2023-07-31T11:08:36;21.60;99.90
40516;DHT22;26216;53.724;9.898;2023-07-31T11:11:09;21.60;99.80
40516;DHT22;26216;53.724;9.898;2023-07-31T11:16:12;21.60;99.70
40516;DHT22;26216;53.724;9.898;2023-07-31T11:18:46;21.70;99.90
40516;DHT22;26216;53.724;9.898;2023-07-31T11:21:17;21.60;99.70
40516;DHT22;26216;53.724;9.898;2023-07-31T11:23:48;21.60;99.70
40516;DHT22;26216;53.724;9.898;2023-07-31T11:26:14;21.60;99.80
40516;DHT22;26216;53.724;9.898;2023-07-31T11:28:41;21.60;99.80
40516;DHT22;26216;53.724;9.898;2023-07-31T11:31:09;21.60;99.60
40516;DHT22;26216;53.724;9.898;2023-07-31T11:33:36;21.70;99.60
40516;DHT22;26216;53.724;9.898;2023-07-31T11:36:02;21.60;99.60
40516;DHT22;26216;53.724;9.898;2023-07-31T11:38:32;21.60;99.60
40516;DHT22;26216;53.724;9.898;2023-07-31T11:41:01;21.60;99.70
40516;DHT22;26216;53.724;9.898;2023-07-31T11:43:33;21.60;99.70
40516;DHT22;26216;53.724;9.898;2023-07-31T11:46:00;21.70;99.70
40516;DHT22;26216;53.724;9.898;2023-07-31T11:48:31;21.70;99.60
40516;DHT22;26216;53.724;9.898;2023-07-31T11:51:04;21.70;98.60
40516;DHT22;26216;53.724;9.898;2023-07-31T11:56:06;21.70;99.10
40516;DHT22;26216;53.724;9.898;2023-07-31T11:58:34;21.80;99.10
40516;DHT22;26216;53.724;9.898;2023-07-31T12:01:01;21.80;99.10
40516;DHT22;26216;53.724;9.898;2023-07-31T12:03:27;21.80;99.20
40516;DHT22;26216;53.724;9.898;2023-07-31T12:05:53;21.80;99.00
40516;DHT22;26216;53.724;9.898;2023-07-31T12:08:24;21.80;98.80
40516;DHT22;26216;53.724;9.898;2023-07-31T12:10:51;21.90;98.70
40516;DHT22;26216;53.724;9.898;2023-07-31T12:13:24;21.90;98.90
40516;DHT22;26216;53.724;9.898;2023-07-31T12:15:56;21.90;98.80
40516;DHT22;26216;53.724;9.898;2023-07-31T12:18:24;21.90;98.90
40516;DHT22;26216;53.724;9.898;2023-07-31T12:20:58;21.90;98.90
40516;DHT22;26216;53.724;9.898;2023-07-31T12:23:28;21.90;98.70
40516;DHT22;26216;53.724;9.898;2023-07-31T12:26:02;22.00;98.80
40516;DHT22;26216;53.724;9.898;2023-07-31T12:28:28;22.00;98.90
40516;DHT22;26216;53.724;9.898;2023-07-31T12:30:59;22.00;98.60
40516;DHT22;26216;53.724;9.898;2023-07-31T12:33:31;22.00;98.20
40516;DHT22;26216;53.724;9.898;2023-07-31T12:35:58;22.00;98.20
40516;DHT22;26216;53.724;9.898;2023-07-31T12:38:23;21.90;98.40
40516;DHT22;26216;53.724;9.898;2023-07-31T12:40:49;21.90;98.40
40516;DHT22;26216;53.724;9.898;2023-07-31T12:43:16;21.90;98.50
40516;DHT22;26216;53.724;9.898;2023-07-31T12:45:41;21.80;98.30
40516;DHT22;26216;53.724;9.898;2023-07-31T12:48:07;21.80;97.90
40516;DHT22;26216;53.724;9.898;2023-07-31T12:50:33;21.80;98.10
40516;DHT22;26216;53.724;9.898;2023-07-31T12:53:02;21.70;98.30
40516;DHT22;26216;53.724;9.898;2023-07-31T12:55:32;21.70;98.10
40516;DHT22;26216;53.724;9.898;2023-07-31T12:58:00;21.60;98.20
40516;DHT22;26216;53.724;9.898;2023-07-31T13:00:26;21.60;98.30
40516;DHT22;26216;53.724;9.898;2023-07-31T13:02:52;21.50;98.40
40516;DHT22;26216;53.724;9.898;2023-07-31T13:05:18;21.50;98.60
40516;DHT22;26216;53.724;9.898;2023-07-31T13:07:46;21.40;98.20
40516;DHT22;26216;53.724;9.898;2023-07-31T13:10:12;21.40;98.60
40516;DHT22;26216;53.724;9.898;2023-07-31T13:12:38;21.40;98.50
40516;DHT22;26216;53.724;9.898;2023-07-31T13:15:05;21.30;98.60
40516;DHT22;26216;53.724;9.898;2023-07-31T13:17:31;21.30;98.80
40516;DHT22;26216;53.724;9.898;2023-07-31T13:19:57;21.30;99.10
40516;DHT22;26216;53.724;9.898;2023-07-31T13:22:23;21.30;99.10
40516;DHT22;26216;53.724;9.898;2023-07-31T13:24:48;21.30;99.00
40516;DHT22;26216;53.724;9.898;2023-07-31T13:27:14;21.20;99.00
40516;DHT22;26216;53.724;9.898;2023-07-31T13:29:45;21.30;99.00
40516;DHT22;26216;53.724;9.898;2023-07-31T13:32:11;21.20;99.20
40516;DHT22;26216;53.724;9.898;2023-07-31T13:34:37;21.20;99.30
40516;DHT22;26216;53.724;9.898;2023-07-31T13:37:04;21.20;99.40
40516;DHT22;26216;53.724;9.898;2023-07-31T13:39:32;21.20;99.20
40516;DHT22;26216;53.724;9.898;2023-07-31T13:41:59;21.20;99.10
40516;DHT22;26216;53.724;9.898;2023-07-31T13:44:25;21.20;98.90
40516;DHT22;26216;53.724;9.898;2023-07-31T13:46:51;21.10;98.90
40516;DHT22;26216;53.724;9.898;2023-07-31T13:49:17;21.10;98.90
40516;DHT22;26216;53.724;9.898;2023-07-31T13:51:42;21.00;99.00
40516;DHT22;26216;53.724;9.898;2023-07-31T13:54:08;21.00;99.00
40516;DHT22;26216;53.724;9.898;2023-07-31T13:56:37;21.00;99.10
40516;DHT22;26216;53.724;9.898;2023-07-31T13:59:03;20.90;99.10
40516;DHT22;26216;53.724;9.898;2023-07-31T14:01:29;20.80;99.10
40516;DHT22;26216;53.724;9.898;2023-07-31T14:03:55;20.80;99.20
40516;DHT22;26216;53.724;9.898;2023-07-31T14:06:21;20.70;99.20
40516;DHT22;26216;53.724;9.898;2023-07-31T14:08:47;20.60;99.30
40516;DHT22;26216;53.724;9.898;2023-07-31T14:11:13;20.60;99.50
40516;DHT22;26216;53.724;9.898;2023-07-31T14:13:38;20.60;99.60
40516;DHT22;26216;53.724;9.898;2023-07-31T14:16:04;20.60;99.70
40516;DHT22;26216;53.724;9.898;2023-07-31T14:18:30;20.50;99.90
40516;DHT22;26216;53.724;9.898;2023-07-31T14:20:56;20.50;99.90
40516;DHT22;26216;53.724;9.898;2023-07-31T14:23:22;20.50;99.90
40516;DHT22;26216;53.724;9.898;2023-07-31T14:25:47;20.50;99.90
40516;DHT22;26216;53.724;9.898;2023-07-31T14:28:14;20.50;99.90
40516;DHT22;26216;53.724;9.898;2023-07-31T14:30:40;20.50;99.90
40516;DHT22;26216;53.724;9.898;2023-07-31T14:33:05;20.40;99.90
40516;DHT22;26216;53.724;9.898;2023-07-31T14:35:32;20.40;99.90
40516;DHT22;26216;53.724;9.898;2023-07-31T14:37:57;20.30;99.90
40516;DHT22;26216;53.724;9.898;2023-07-31T14:40:24;20.30;99.90
40516;DHT22;26216;53.724;9.898;2023-07-31T14:42:49;20.30;99.90
40516;DHT22;26216;53.724;9.898;2023-07-31T14:45:15;20.30;99.90
40516;DHT22;26216;53.724;9.898;2023-07-31T14:47:41;20.20;99.90
40516;DHT22;26216;53.724;9.898;2023-07-31T14:50:07;20.30;99.90
40516;DHT22;26216;53.724;9.898;2023-07-31T14:52:33;20.20;99.90
40516;DHT22;26216;53.724;9.898;2023-07-31T14:54:59;20.20;99.90
40516;DHT22;26216;53.724;9.898;2023-07-31T14:57:24;20.20;99.90
40516;DHT22;26216;53.724;9.898;2023-07-31T14:59:50;20.20;99.90
40516;DHT22;26216;53.724;9.898;2023-07-31T15:02:16;20.20;99.90
40516;DHT22;26216;53.724;9.898;2023-07-31T15:04:42;20.20;99.90
40516;DHT22;26216;53.724;9.898;2023-07-31T15:07:08;20.20;99.90
40516;DHT22;26216;53.724;9.898;2023-07-31T15:09:34;20.10;99.90
40516;DHT22;26216;53.724;9.898;2023-07-31T15:11:59;20.10;99.90
40516;DHT22;26216;53.724;9.898;2023-07-31T15:14:26;20.10;99.90
40516;DHT22;26216;53.724;9.898;2023-07-31T15:16:53;20.20;99.90
40516;DHT22;26216;53.724;9.898;2023-07-31T15:19:19;20.20;99.90
40516;DHT22;26216;53.724;9.898;2023-07-31T15:21:45;20.20;99.90
40516;DHT22;26216;53.724;9.898;2023-07-31T15:24:10;20.20;99.90
40516;DHT22;26216;53.724;9.898;2023-07-31T15:26:37;20.20;99.90
40516;DHT22;26216;53.724;9.898;2023-07-31T15:29:06;20.20;99.90
40516;DHT22;26216;53.724;9.898;2023-07-31T15:31:40;20.20;99.90
40516;DHT22;26216;53.724;9.898;2023-07-31T15:34:06;20.20;99.90
40516;DHT22;26216;53.724;9.898;2023-07-31T15:36:32;20.20;99.90
40516;DHT22;26216;53.724;9.898;2023-07-31T15:38:58;20.20;99.90
40516;DHT22;26216;53.724;9.898;2023-07-31T15:41:24;20.20;99.90
40516;DHT22;26216;53.724;9.898;2023-07-31T15:43:51;20.20;99.90
40516;DHT22;26216;53.724;9.898;2023-07-31T15:46:17;20.20;99.90
40516;DHT22;26216;53.724;9.898;2023-07-31T15:48:44;20.20;99.90
40516;DHT22;26216;53.724;9.898;2023-07-31T15:51:10;20.30;99.90